sensor_id;sensor_type;location;lat;lon;timestamp;pressure;altitude;pressure_sealevel;temperature;humidity
40838;BME280;29632;49.168;9.848;2022-09-29T00:01:28;95307.03;;;14.42;50.71
40838;BME280;29632;49.168;9.848;2022-09-29T00:03:54;95308.41;;;14.38;50.59
40838;BME280;29632;49.168;9.848;2022-09-29T00:06:20;95305.19;;;14.35;50.99
40838;BME280;29632;49.168;9.848;2022-09-29T00:08:46;95303.81;;;14.33;50.88
40838;BME280;29632;49.168;9.848;2022-09-29T00:11:15;95309.66;;;14.28;50.96
40838;BME280;29632;49.168;9.848;2022-09-29T00:13:41;95315.09;;;14.27;50.91
40838;BME280;29632;49.168;9.848;2022-09-29T00:16:07;95307.44;;;14.25;50.51
40838;BME280;29632;49.168;9.848;2022-09-29T00:18:33;95310.03;;;14.25;50.71
40838;BME280;29632;49.168;9.848;2022-09-29T00:21:05;95308.44;;;14.24;50.61
40838;BME280;29632;49.168;9.848;2022-09-29T00:23:31;95318.09;;;14.24;50.54
40838;BME280;29632;49.168;9.848;2022-09-29T00:26:05;95310.25;;;14.24;50.62
40838;BME280;29632;49.168;9.848;2022-09-29T00:28:32;95311.28;;;14.23;50.53
40838;BME280;29632;49.168;9.848;2022-09-29T00:30:59;95314.69;;;14.23;50.83
40838;BME280;29632;49.168;9.848;2022-09-29T00:33:28;95307.63;;;14.24;50.79
40838;BME280;29632;49.168;9.848;2022-09-29T00:35:58;95308.66;;;14.23;50.52
40838;BME280;29632;49.168;9.848;2022-09-29T00:38:26;95311.66;;;14.20;50.50
40838;BME280;29632;49.168;9.848;2022-09-29T00:40:52;95310.03;;;14.19;50.53
40838;BME280;29632;49.168;9.848;2022-09-29T00:48:57;95309.44;;;14.16;50.56
40838;BME280;29632;49.168;9.848;2022-09-29T00:51:24;95300.78;;;14.16;50.59
40838;BME280;29632;49.168;9.848;2022-09-29T00:53:51;95298.97;;;14.16;50.52
40838;BME280;29632;49.168;9.848;2022-09-29T00:56:17;95299.38;;;14.13;50.72
40838;BME280;29632;49.168;9.848;2022-09-29T00:58:53;95305.81;;;14.11;50.44
40838;BME280;29632;49.168;9.848;2022-09-29T01:01:21;95301.38;;;14.11;50.58
40838;BME280;29632;49.168;9.848;2022-09-29T01:03:47;95307.66;;;14.10;50.89
40838;BME280;29632;49.168;9.848;2022-09-29T01:06:29;95300.19;;;14.07;50.92
40838;BME280;29632;49.168;9.848;2022-09-29T01:09:03;95295.75;;;14.08;50.57
40838;BME280;29632;49.168;9.848;2022-09-29T01:11:30;95287.69;;;14.09;50.45
40838;BME280;29632;49.168;9.848;2022-09-29T01:13:57;95291.31;;;14.08;50.59
40838;BME280;29632;49.168;9.848;2022-09-29T01:16:37;95288.69;;;14.08;50.95
40838;BME280;29632;49.168;9.848;2022-09-29T01:19:14;95282.88;;;14.06;50.75
40838;BME280;29632;49.168;9.848;2022-09-29T01:34:50;95289.31;;;13.97;50.82
40838;BME280;29632;49.168;9.848;2022-09-29T01:38:02;95290.53;;;13.94;50.83
40838;BME280;29632;49.168;9.848;2022-09-29T01:43:17;95289.31;;;13.90;50.68
40838;BME280;29632;49.168;9.848;2022-09-29T01:45:52;95289.50;;;13.89;50.87
40838;BME280;29632;49.168;9.848;2022-09-29T01:48:25;95292.31;;;13.87;50.69
40838;BME280;29632;49.168;9.848;2022-09-29T01:50:56;95297.78;;;13.86;50.76
40838;BME280;29632;49.168;9.848;2022-09-29T01:53:33;95295.34;;;13.84;50.89
40838;BME280;29632;49.168;9.848;2022-09-29T01:56:07;95298.78;;;13.85;50.61
40838;BME280;29632;49.168;9.848;2022-09-29T01:58:47;95303.22;;;13.84;50.51
40838;BME280;29632;49.168;9.848;2022-09-29T02:01:13;95298.38;;;13.81;50.66
40838;BME280;29632;49.168;9.848;2022-09-29T02:03:44;95305.41;;;13.81;51.04
40838;BME280;29632;49.168;9.848;2022-09-29T02:06:16;95303.00;;;13.79;50.79
40838;BME280;29632;49.168;9.848;2022-09-29T02:08:50;95302.41;;;13.77;50.54
40838;BME280;29632;49.168;9.848;2022-09-29T02:11:17;95302.59;;;13.75;50.95
40838;BME280;29632;49.168;9.848;2022-09-29T02:13:53;95305.41;;;13.74;50.99
40838;BME280;29632;49.168;9.848;2022-09-29T02:16:23;95309.84;;;13.73;50.71
40838;BME280;29632;49.168;9.848;2022-09-29T02:19:12;95311.63;;;13.73;50.65
40838;BME280;29632;49.168;9.848;2022-09-29T02:21:41;95305.81;;;13.71;50.63
40838;BME280;29632;49.168;9.848;2022-09-29T02:24:09;95309.41;;;13.70;50.70
40838;BME280;29632;49.168;9.848;2022-09-29T02:26:35;95309.63;;;13.68;50.74
40838;BME280;29632;49.168;9.848;2022-09-29T02:29:03;95306.19;;;13.68;50.97
40838;BME280;29632;49.168;9.848;2022-09-29T02:31:30;95314.88;;;13.68;51.00
40838;BME280;29632;49.168;9.848;2022-09-29T02:33:56;95306.19;;;13.68;51.02
40838;BME280;29632;49.168;9.848;2022-09-29T02:39:38;95307.44;;;13.72;50.89
40838;BME280;29632;49.168;9.848;2022-09-29T02:42:17;95302.19;;;13.72;50.94
40838;BME280;29632;49.168;9.848;2022-09-29T02:47:40;95301.78;;;13.75;50.72
40838;BME280;29632;49.168;9.848;2022-09-29T02:50:35;95308.63;;;13.76;50.95
40838;BME280;29632;49.168;9.848;2022-09-29T02:58:27;95308.44;;;13.77;50.66
40838;BME280;29632;49.168;9.848;2022-09-29T03:00:56;95306.41;;;13.79;50.95
40838;BME280;29632;49.168;9.848;2022-09-29T03:03:22;95312.44;;;13.80;50.66
40838;BME280;29632;49.168;9.848;2022-09-29T03:05:47;95307.22;;;13.80;50.60
40838;BME280;29632;49.168;9.848;2022-09-29T03:08:13;95314.66;;;13.83;50.76
40838;BME280;29632;49.168;9.848;2022-09-29T03:10:39;95306.63;;;13.85;50.74
40838;BME280;29632;49.168;9.848;2022-09-29T03:13:04;95303.81;;;13.86;50.70
40838;BME280;29632;49.168;9.848;2022-09-29T03:15:30;95305.22;;;13.89;50.63
40838;BME280;29632;49.168;9.848;2022-09-29T03:17:56;95303.41;;;13.89;50.63
40838;BME280;29632;49.168;9.848;2022-09-29T03:20:22;95302.41;;;13.90;50.98
40838;BME280;29632;49.168;9.848;2022-09-29T03:22:48;95306.63;;;13.91;50.79
40838;BME280;29632;49.168;9.848;2022-09-29T03:25:13;95307.22;;;13.93;50.82
40838;BME280;29632;49.168;9.848;2022-09-29T03:27:39;95309.06;;;13.93;50.70
40838;BME280;29632;49.168;9.848;2022-09-29T03:30:06;95300.19;;;13.94;50.81
40838;BME280;29632;49.168;9.848;2022-09-29T03:32:32;95303.63;;;13.94;50.83
40838;BME280;29632;49.168;9.848;2022-09-29T03:34:57;95304.41;;;13.95;50.50
40838;BME280;29632;49.168;9.848;2022-09-29T03:37:23;95299.97;;;13.95;50.72
40838;BME280;29632;49.168;9.848;2022-09-29T03:39:49;95297.56;;;13.94;50.66
40838;BME280;29632;49.168;9.848;2022-09-29T03:42:14;95297.56;;;13.94;50.59
40838;BME280;29632;49.168;9.848;2022-09-29T03:44:40;95292.31;;;13.94;50.88
40838;BME280;29632;49.168;9.848;2022-09-29T03:47:06;95292.31;;;13.94;50.65
40838;BME280;29632;49.168;9.848;2022-09-29T03:49:32;95288.72;;;13.95;50.70
40838;BME280;29632;49.168;9.848;2022-09-29T03:51:58;95285.31;;;13.94;50.97
40838;BME280;29632;49.168;9.848;2022-09-29T03:54:24;95285.06;;;13.96;50.88
40838;BME280;29632;49.168;9.848;2022-09-29T03:56:51;95278.06;;;13.96;51.04
40838;BME280;29632;49.168;9.848;2022-09-29T03:59:17;95283.09;;;13.98;50.56
40838;BME280;29632;49.168;9.848;2022-09-29T04:01:42;95271.59;;;13.99;50.47
40838;BME280;29632;49.168;9.848;2022-09-29T04:04:08;95275.25;;;13.98;50.45
40838;BME280;29632;49.168;9.848;2022-09-29T04:06:34;95286.50;;;13.98;50.43
40838;BME280;29632;49.168;9.848;2022-09-29T04:09:00;95282.06;;;13.99;50.83
40838;BME280;29632;49.168;9.848;2022-09-29T04:11:27;95283.50;;;14.02;50.63
40838;BME280;29632;49.168;9.848;2022-09-29T04:13:52;95280.28;;;14.00;50.72
40838;BME280;29632;49.168;9.848;2022-09-29T04:16:18;95271.59;;;13.99;50.78
40838;BME280;29632;49.168;9.848;2022-09-29T04:18:44;95272.41;;;14.00;50.80
40838;BME280;29632;49.168;9.848;2022-09-29T04:21:10;95268.97;;;13.99;50.71
40838;BME280;29632;49.168;9.848;2022-09-29T04:23:36;95263.94;;;13.97;50.86
40838;BME280;29632;49.168;9.848;2022-09-29T04:26:03;95265.75;;;13.97;50.77
40838;BME280;29632;49.168;9.848;2022-09-29T04:28:33;95263.34;;;13.95;51.02
40838;BME280;29632;49.168;9.848;2022-09-29T04:30:59;95265.16;;;13.95;50.77
40838;BME280;29632;49.168;9.848;2022-09-29T04:33:24;95267.78;;;13.95;50.83
40838;BME280;29632;49.168;9.848;2022-09-29T04:35:50;95274.00;;;13.94;50.77
40838;BME280;29632;49.168;9.848;2022-09-29T04:38:16;95271.81;;;13.91;50.92
40838;BME280;29632;49.168;9.848;2022-09-29T04:40:41;95271.19;;;13.89;51.10
40838;BME280;29632;49.168;9.848;2022-09-29T04:43:07;95270.78;;;13.85;50.81
40838;BME280;29632;49.168;9.848;2022-09-29T04:45:33;95276.44;;;13.82;51.22
40838;BME280;29632;49.168;9.848;2022-09-29T04:47:58;95275.03;;;13.79;51.14
40838;BME280;29632;49.168;9.848;2022-09-29T04:50:24;95274.22;;;13.79;50.85
40838;BME280;29632;49.168;9.848;2022-09-29T04:52:50;95276.84;;;13.79;50.92
40838;BME280;29632;49.168;9.848;2022-09-29T04:55:16;95282.47;;;13.76;50.95
40838;BME280;29632;49.168;9.848;2022-09-29T04:57:42;95288.09;;;13.73;51.14
40838;BME280;29632;49.168;9.848;2022-09-29T05:00:09;95287.88;;;13.68;50.80
40838;BME280;29632;49.168;9.848;2022-09-29T05:02:36;95293.31;;;13.66;51.10
40838;BME280;29632;49.168;9.848;2022-09-29T05:05:02;95293.53;;;13.65;50.87
40838;BME280;29632;49.168;9.848;2022-09-29T05:07:28;95290.91;;;13.65;50.76
40838;BME280;29632;49.168;9.848;2022-09-29T05:09:54;95290.91;;;13.65;50.99
40838;BME280;29632;49.168;9.848;2022-09-29T05:12:20;95291.13;;;13.63;51.16
40838;BME280;29632;49.168;9.848;2022-09-29T05:14:46;95285.88;;;13.63;51.23
40838;BME280;29632;49.168;9.848;2022-09-29T05:17:11;95287.66;;;13.63;50.91
40838;BME280;29632;49.168;9.848;2022-09-29T05:19:37;95286.88;;;13.62;51.20
40838;BME280;29632;49.168;9.848;2022-09-29T05:22:03;95299.16;;;13.62;50.91
40838;BME280;29632;49.168;9.848;2022-09-29T05:24:28;95298.31;;;13.61;51.03
40838;BME280;29632;49.168;9.848;2022-09-29T05:26:54;95295.50;;;13.63;51.08
40838;BME280;29632;49.168;9.848;2022-09-29T05:29:20;95302.56;;;13.62;51.04
40838;BME280;29632;49.168;9.848;2022-09-29T05:31:46;95309.63;;;13.62;50.77
40838;BME280;29632;49.168;9.848;2022-09-29T05:34:11;95304.59;;;13.60;50.79
40838;BME280;29632;49.168;9.848;2022-09-29T05:36:37;95310.00;;;13.58;51.20
40838;BME280;29632;49.168;9.848;2022-09-29T05:39:02;95314.44;;;13.58;51.06
40838;BME280;29632;49.168;9.848;2022-09-29T05:41:28;95310.19;;;13.57;50.65
40838;BME280;29632;49.168;9.848;2022-09-29T05:43:55;95314.44;;;13.58;50.72
40838;BME280;29632;49.168;9.848;2022-09-29T05:46:21;95324.06;;;13.57;50.82
40838;BME280;29632;49.168;9.848;2022-09-29T05:48:48;95314.44;;;13.58;51.17
40838;BME280;29632;49.168;9.848;2022-09-29T05:51:17;95320.47;;;13.58;51.00
40838;BME280;29632;49.168;9.848;2022-09-29T05:53:44;95328.31;;;13.58;50.97
40838;BME280;29632;49.168;9.848;2022-09-29T05:56:15;95331.72;;;13.59;50.96
40838;BME280;29632;49.168;9.848;2022-09-29T05:58:41;95329.94;;;13.59;50.80
40838;BME280;29632;49.168;9.848;2022-09-29T06:01:12;95328.13;;;13.60;50.66
40838;BME280;29632;49.168;9.848;2022-09-29T06:03:39;95333.16;;;13.62;50.72
40838;BME280;29632;49.168;9.848;2022-09-29T06:06:10;95343.81;;;13.60;51.07
40838;BME280;29632;49.168;9.848;2022-09-29T06:08:37;95349.25;;;13.58;50.91
40838;BME280;29632;49.168;9.848;2022-09-29T06:11:11;95352.25;;;13.55;50.84
40838;BME280;29632;49.168;9.848;2022-09-29T06:13:39;95341.34;;;13.45;51.09
40838;BME280;29632;49.168;9.848;2022-09-29T06:16:06;95347.38;;;13.39;50.84
40838;BME280;29632;49.168;9.848;2022-09-29T06:18:31;95350.00;;;13.39;50.99
40838;BME280;29632;49.168;9.848;2022-09-29T06:21:17;95345.38;;;13.41;50.93
40838;BME280;29632;49.168;9.848;2022-09-29T06:23:44;95347.00;;;13.42;50.76
40838;BME280;29632;49.168;9.848;2022-09-29T06:26:11;95340.56;;;13.45;50.76
40838;BME280;29632;49.168;9.848;2022-09-29T06:28:38;95349.84;;;13.47;50.93
40838;BME280;29632;49.168;9.848;2022-09-29T06:31:05;95342.41;;;13.51;50.72
40838;BME280;29632;49.168;9.848;2022-09-29T06:33:32;95343.59;;;13.55;50.67
40838;BME280;29632;49.168;9.848;2022-09-29T06:36:01;95351.66;;;13.60;50.62
40838;BME280;29632;49.168;9.848;2022-09-29T06:38:46;95340.00;;;13.63;50.75
40838;BME280;29632;49.168;9.848;2022-09-29T06:41:12;95352.69;;;13.66;50.51
40838;BME280;29632;49.168;9.848;2022-09-29T06:43:38;95347.25;;;13.67;50.43
40838;BME280;29632;49.168;9.848;2022-09-29T06:46:04;95344.44;;;13.69;50.81
40838;BME280;29632;49.168;9.848;2022-09-29T06:48:29;95346.47;;;13.73;50.38
40838;BME280;29632;49.168;9.848;2022-09-29T06:50:55;95345.06;;;13.77;50.55
40838;BME280;29632;49.168;9.848;2022-09-29T06:53:22;95341.03;;;13.82;50.70
40838;BME280;29632;49.168;9.848;2022-09-29T06:55:54;95340.44;;;13.86;50.63
40838;BME280;29632;49.168;9.848;2022-09-29T06:58:22;95341.84;;;13.89;50.40
40838;BME280;29632;49.168;9.848;2022-09-29T07:00:47;95341.25;;;13.87;50.31
40838;BME280;29632;49.168;9.848;2022-09-29T07:03:13;95338.63;;;13.87;50.85
40838;BME280;29632;49.168;9.848;2022-09-29T07:05:39;95346.88;;;13.90;50.52
40838;BME280;29632;49.168;9.848;2022-09-29T07:08:04;95343.88;;;13.93;50.51
40838;BME280;29632;49.168;9.848;2022-09-29T07:10:30;95343.88;;;14.00;50.22
40838;BME280;29632;49.168;9.848;2022-09-29T07:12:56;95344.09;;;14.05;50.72
40838;BME280;29632;49.168;9.848;2022-09-29T07:15:21;95343.66;;;14.08;50.58
40838;BME280;29632;49.168;9.848;2022-09-29T07:17:50;95341.47;;;14.12;50.48
40838;BME280;29632;49.168;9.848;2022-09-29T07:20:16;95346.50;;;14.13;50.62
40838;BME280;29632;49.168;9.848;2022-09-29T07:22:45;95342.47;;;14.18;50.53
40838;BME280;29632;49.168;9.848;2022-09-29T07:25:11;95338.44;;;14.22;50.66
40838;BME280;29632;49.168;9.848;2022-09-29T07:27:37;95346.50;;;14.27;50.66
40838;BME280;29632;49.168;9.848;2022-09-29T07:30:03;95345.72;;;14.33;50.79
40838;BME280;29632;49.168;9.848;2022-09-29T07:32:29;95358.38;;;14.36;50.33
40838;BME280;29632;49.168;9.848;2022-09-29T07:34:57;95359.59;;;14.40;50.25
40838;BME280;29632;49.168;9.848;2022-09-29T07:37:22;95371.88;;;14.46;49.95
40838;BME280;29632;49.168;9.848;2022-09-29T07:39:49;95364.63;;;14.48;50.25
40838;BME280;29632;49.168;9.848;2022-09-29T07:42:16;95365.25;;;14.50;50.53
40838;BME280;29632;49.168;9.848;2022-09-29T07:44:42;95360.41;;;14.47;50.11
40838;BME280;29632;49.168;9.848;2022-09-29T07:47:08;95361.41;;;14.46;50.39
40838;BME280;29632;49.168;9.848;2022-09-29T07:49:34;95356.75;;;14.48;50.34
40838;BME280;29632;49.168;9.848;2022-09-29T07:51:59;95366.66;;;14.53;50.46
40838;BME280;29632;49.168;9.848;2022-09-29T07:54:25;95362.44;;;14.59;50.53
40838;BME280;29632;49.168;9.848;2022-09-29T07:56:51;95366.28;;;14.63;50.13
40838;BME280;29632;49.168;9.848;2022-09-29T07:59:16;95363.03;;;14.67;50.36
40838;BME280;29632;49.168;9.848;2022-09-29T08:01:42;95372.91;;;14.65;50.65
40838;BME280;29632;49.168;9.848;2022-09-29T08:04:08;95366.25;;;14.69;50.68
40838;BME280;29632;49.168;9.848;2022-09-29T08:06:33;95368.25;;;14.74;50.23
40838;BME280;29632;49.168;9.848;2022-09-29T08:09:00;95368.66;;;14.78;50.19
40838;BME280;29632;49.168;9.848;2022-09-29T08:11:26;95360.97;;;14.83;50.14
40838;BME280;29632;49.168;9.848;2022-09-29T08:13:52;95363.19;;;14.86;50.33
40838;BME280;29632;49.168;9.848;2022-09-29T08:16:18;95367.41;;;14.87;50.40
40838;BME280;29632;49.168;9.848;2022-09-29T08:18:44;95367.22;;;14.88;50.43
40838;BME280;29632;49.168;9.848;2022-09-29T08:21:10;95368.84;;;14.89;50.39
40838;BME280;29632;49.168;9.848;2022-09-29T08:23:38;95368.22;;;14.94;50.31
40838;BME280;29632;49.168;9.848;2022-09-29T08:26:06;95379.50;;;15.01;50.35
40838;BME280;29632;49.168;9.848;2022-09-29T08:28:33;95380.50;;;15.07;50.23
40838;BME280;29632;49.168;9.848;2022-09-29T08:31:07;95377.66;;;15.15;49.97
40838;BME280;29632;49.168;9.848;2022-09-29T08:33:34;95379.22;;;15.23;49.97
40838;BME280;29632;49.168;9.848;2022-09-29T08:36:01;95380.81;;;15.30;50.08
40838;BME280;29632;49.168;9.848;2022-09-29T08:38:30;95389.69;;;15.36;50.13
40838;BME280;29632;49.168;9.848;2022-09-29T08:40:56;95382.78;;;15.42;49.63
40838;BME280;29632;49.168;9.848;2022-09-29T08:43:26;95380.50;;;15.59;49.74
40838;BME280;29632;49.168;9.848;2022-09-29T08:48:35;95371.00;;;16.78;47.68
40838;BME280;29632;49.168;9.848;2022-09-29T08:51:09;95379.69;;;17.04;47.60
40838;BME280;29632;49.168;9.848;2022-09-29T08:53:38;95385.16;;;17.21;47.30
40838;BME280;29632;49.168;9.848;2022-09-29T08:56:12;95381.06;;;17.25;47.29
40838;BME280;29632;49.168;9.848;2022-09-29T08:58:39;95390.03;;;17.17;47.45
40838;BME280;29632;49.168;9.848;2022-09-29T09:22:57;95405.25;;;16.97;48.93
40838;BME280;29632;49.168;9.848;2022-09-29T09:28:11;95417.44;;;17.10;48.72
40838;BME280;29632;49.168;9.848;2022-09-29T09:30:52;95408.91;;;17.14;48.66
40838;BME280;29632;49.168;9.848;2022-09-29T09:33:26;95413.28;;;17.21;48.69
40838;BME280;29632;49.168;9.848;2022-09-29T09:36:01;95407.38;;;17.25;48.58
40838;BME280;29632;49.168;9.848;2022-09-29T09:41:20;95405.84;;;17.36;48.75
40838;BME280;29632;49.168;9.848;2022-09-29T09:44:11;95407.06;;;17.52;48.38
40838;BME280;29632;49.168;9.848;2022-09-29T09:49:41;95400.53;;;17.73;48.34
40838;BME280;29632;49.168;9.848;2022-09-29T09:52:35;95398.34;;;17.88;48.32
40838;BME280;29632;49.168;9.848;2022-09-29T09:55:04;95406.41;;;18.05;48.14
40838;BME280;29632;49.168;9.848;2022-09-29T09:57:42;95403.34;;;18.20;48.28
40838;BME280;29632;49.168;9.848;2022-09-29T10:00:17;95404.28;;;18.26;48.25
40838;BME280;29632;49.168;9.848;2022-09-29T10:02:51;95403.97;;;18.34;48.21
40838;BME280;29632;49.168;9.848;2022-09-29T10:05:19;95396.88;;;18.46;48.21
40838;BME280;29632;49.168;9.848;2022-09-29T10:07:45;95396.91;;;18.58;48.24
40838;BME280;29632;49.168;9.848;2022-09-29T10:10:24;95403.78;;;18.71;47.86
40838;BME280;29632;49.168;9.848;2022-09-29T10:13:01;95389.03;;;18.82;48.06
40838;BME280;29632;49.168;9.848;2022-09-29T10:18:40;95402.56;;;18.97;47.75
40838;BME280;29632;49.168;9.848;2022-09-29T10:21:35;95393.72;;;19.03;47.80
40838;BME280;29632;49.168;9.848;2022-09-29T10:24:02;95406.34;;;19.01;47.90
40838;BME280;29632;49.168;9.848;2022-09-29T10:26:38;95404.63;;;18.95;47.98
40838;BME280;29632;49.168;9.848;2022-09-29T10:29:33;95411.41;;;18.91;48.30
40838;BME280;29632;49.168;9.848;2022-09-29T10:32:36;95412.53;;;18.95;48.08
40838;BME280;29632;49.168;9.848;2022-09-29T10:37:41;95411.41;;;18.91;48.31
40838;BME280;29632;49.168;9.848;2022-09-29T10:42:37;95425.13;;;18.81;48.60
40838;BME280;29632;49.168;9.848;2022-09-29T10:47:29;95419.59;;;18.71;48.73
40838;BME280;29632;49.168;9.848;2022-09-29T10:50:21;95426.38;;;18.67;48.53
40838;BME280;29632;49.168;9.848;2022-09-29T10:52:51;95419.13;;;18.62;48.85
40838;BME280;29632;49.168;9.848;2022-09-29T10:55:20;95416.97;;;18.59;48.84
40838;BME280;29632;49.168;9.848;2022-09-29T10:57:46;95422.59;;;18.63;48.76
40838;BME280;29632;49.168;9.848;2022-09-29T11:00:35;95424.19;;;18.64;48.67
40838;BME280;29632;49.168;9.848;2022-09-29T11:03:13;95423.72;;;18.67;48.84
40838;BME280;29632;49.168;9.848;2022-09-29T11:06:01;95426.38;;;18.67;48.80
40838;BME280;29632;49.168;9.848;2022-09-29T11:08:27;95431.66;;;18.67;48.63
40838;BME280;29632;49.168;9.848;2022-09-29T11:11:23;95429.81;;;18.67;48.60
40838;BME280;29632;49.168;9.848;2022-09-29T11:13:50;95432.91;;;18.64;48.78
40838;BME280;29632;49.168;9.848;2022-09-29T11:16:32;95433.94;;;18.63;48.74
40838;BME280;29632;49.168;9.848;2022-09-29T11:19:03;95434.28;;;18.67;48.67
40838;BME280;29632;49.168;9.848;2022-09-29T11:26:46;95439.72;;;18.84;48.22
40838;BME280;29632;49.168;9.848;2022-09-29T11:32:10;95448.06;;;18.81;48.26
40838;BME280;29632;49.168;9.848;2022-09-29T11:35:11;95442.22;;;18.79;48.28
40838;BME280;29632;49.168;9.848;2022-09-29T11:43:42;95437.03;;;18.72;48.26
40838;BME280;29632;49.168;9.848;2022-09-29T11:52:11;95434.84;;;18.69;48.45
40838;BME280;29632;49.168;9.848;2022-09-29T12:05:32;95425.56;;;18.78;47.88
40838;BME280;29632;49.168;9.848;2022-09-29T12:11:19;95435.38;;;18.90;47.73
40838;BME280;29632;49.168;9.848;2022-09-29T12:16:36;95422.63;;;18.98;47.89
40838;BME280;29632;49.168;9.848;2022-09-29T12:19:10;95422.53;;;19.05;47.81
40838;BME280;29632;49.168;9.848;2022-09-29T12:21:41;95428.16;;;19.09;47.57
40838;BME280;29632;49.168;9.848;2022-09-29T12:24:39;95416.66;;;19.15;47.45
40838;BME280;29632;49.168;9.848;2022-09-29T12:27:35;95422.03;;;19.20;47.52
40838;BME280;29632;49.168;9.848;2022-09-29T12:30:29;95420.44;;;19.19;47.58
40838;BME280;29632;49.168;9.848;2022-09-29T12:36:16;95414.44;;;19.35;47.54
40838;BME280;29632;49.168;9.848;2022-09-29T12:39:17;95427.06;;;19.45;47.34
40838;BME280;29632;49.168;9.848;2022-09-29T12:41:55;95425.09;;;19.52;47.18
40838;BME280;29632;49.168;9.848;2022-09-29T12:44:37;95422.78;;;19.56;47.34
40838;BME280;29632;49.168;9.848;2022-09-29T12:47:14;95421.75;;;19.57;47.64
40838;BME280;29632;49.168;9.848;2022-09-29T12:49:54;95413.81;;;19.57;47.47
40838;BME280;29632;49.168;9.848;2022-09-29T12:52:25;95416.00;;;19.60;47.45
40838;BME280;29632;49.168;9.848;2022-09-29T12:54:57;95412.09;;;19.62;47.45
40838;BME280;29632;49.168;9.848;2022-09-29T12:57:36;95418.50;;;19.67;47.51
40838;BME280;29632;49.168;9.848;2022-09-29T13:00:22;95422.06;;;19.72;47.42
40838;BME280;29632;49.168;9.848;2022-09-29T13:09:32;95419.34;;;20.25;46.73
40838;BME280;29632;49.168;9.848;2022-09-29T13:17:09;95424.00;;;20.34;46.57
40838;BME280;29632;49.168;9.848;2022-09-29T13:19:47;95426.41;;;20.36;46.53
40838;BME280;29632;49.168;9.848;2022-09-29T13:22:28;95432.50;;;20.36;46.66
40838;BME280;29632;49.168;9.848;2022-09-29T13:27:56;95423.53;;;20.37;46.59
40838;BME280;29632;49.168;9.848;2022-09-29T13:30:26;95432.03;;;20.40;46.53
40838;BME280;29632;49.168;9.848;2022-09-29T13:33:19;95435.47;;;20.40;46.46
40838;BME280;29632;49.168;9.848;2022-09-29T13:35:47;95437.31;;;20.40;46.61
40838;BME280;29632;49.168;9.848;2022-09-29T13:38:24;95428.84;;;20.37;46.75
40838;BME280;29632;49.168;9.848;2022-09-29T13:49:23;95441.38;;;20.30;46.70
40838;BME280;29632;49.168;9.848;2022-09-29T13:52:09;95444.00;;;20.30;46.46
40838;BME280;29632;49.168;9.848;2022-09-29T13:54:43;95439.56;;;20.31;46.65
40838;BME280;29632;49.168;9.848;2022-09-29T14:02:24;95438.84;;;20.52;46.04
40838;BME280;29632;49.168;9.848;2022-09-29T14:04:53;95440.06;;;20.62;45.92
40838;BME280;29632;49.168;9.848;2022-09-29T14:07:39;95439.94;;;20.68;45.63
40838;BME280;29632;49.168;9.848;2022-09-29T14:12:47;95440.56;;;20.75;45.52
40838;BME280;29632;49.168;9.848;2022-09-29T14:15:16;95448.25;;;20.77;45.36
40838;BME280;29632;49.168;9.848;2022-09-29T14:17:50;95447.00;;;20.80;45.31
40838;BME280;29632;49.168;9.848;2022-09-29T14:20:27;95446.50;;;20.83;45.43
40838;BME280;29632;49.168;9.848;2022-09-29T14:28:03;95450.69;;;20.96;45.16
40838;BME280;29632;49.168;9.848;2022-09-29T14:35:42;95455.00;;;21.02;45.49
40838;BME280;29632;49.168;9.848;2022-09-29T14:38:16;95457.16;;;21.05;45.14
40838;BME280;29632;49.168;9.848;2022-09-29T14:41:39;95463.25;;;21.05;45.07
40838;BME280;29632;49.168;9.848;2022-09-29T15:03:53;95485.06;;;21.12;45.09
40838;BME280;29632;49.168;9.848;2022-09-29T15:06:22;95491.31;;;21.06;45.28
40838;BME280;29632;49.168;9.848;2022-09-29T15:09:03;95491.00;;;21.03;45.20
40838;BME280;29632;49.168;9.848;2022-09-29T15:11:47;95495.75;;;21.01;45.34
40838;BME280;29632;49.168;9.848;2022-09-29T15:25:18;95503.34;;;20.80;45.55
40838;BME280;29632;49.168;9.848;2022-09-29T15:27:50;95499.59;;;20.76;45.62
40838;BME280;29632;49.168;9.848;2022-09-29T15:30:19;95499.00;;;20.74;45.39
40838;BME280;29632;49.168;9.848;2022-09-29T15:32:45;95507.66;;;20.69;45.70
40838;BME280;29632;49.168;9.848;2022-09-29T15:35:19;95499.19;;;20.67;45.40
40838;BME280;29632;49.168;9.848;2022-09-29T15:40:19;95504.59;;;20.61;45.48
40838;BME280;29632;49.168;9.848;2022-09-29T15:42:45;95509.78;;;20.55;45.68
40838;BME280;29632;49.168;9.848;2022-09-29T15:45:19;95514.50;;;20.53;45.67
40838;BME280;29632;49.168;9.848;2022-09-29T15:47:46;95522.91;;;20.50;45.48
40838;BME280;29632;49.168;9.848;2022-09-29T15:52:45;95536.03;;;20.45;45.64
40838;BME280;29632;49.168;9.848;2022-09-29T15:55:16;95541.78;;;20.42;45.65
40838;BME280;29632;49.168;9.848;2022-09-29T15:57:44;95538.03;;;20.38;45.57
40838;BME280;29632;49.168;9.848;2022-09-29T16:05:26;95538.06;;;20.26;45.71
40838;BME280;29632;49.168;9.848;2022-09-29T16:08:05;95541.41;;;20.22;45.65
40838;BME280;29632;49.168;9.848;2022-09-29T16:10:59;95542.91;;;20.17;45.82
40838;BME280;29632;49.168;9.848;2022-09-29T16:13:31;95541.22;;;20.11;45.88
40838;BME280;29632;49.168;9.848;2022-09-29T16:16:03;95549.59;;;20.08;45.87
40838;BME280;29632;49.168;9.848;2022-09-29T16:18:48;95555.34;;;20.05;46.01
40838;BME280;29632;49.168;9.848;2022-09-29T16:21:23;95548.94;;;20.01;45.88
40838;BME280;29632;49.168;9.848;2022-09-29T16:24:02;95560.19;;;19.96;46.14
40838;BME280;29632;49.168;9.848;2022-09-29T16:26:50;95559.28;;;19.91;45.99
40838;BME280;29632;49.168;9.848;2022-09-29T16:31:43;95566.88;;;19.87;45.74
40838;BME280;29632;49.168;9.848;2022-09-29T16:39:41;95566.66;;;19.77;45.93
40838;BME280;29632;49.168;9.848;2022-09-29T16:42:24;95567.31;;;19.72;45.57
40838;BME280;29632;49.168;9.848;2022-09-29T16:44:52;95570.41;;;19.69;46.17
40838;BME280;29632;49.168;9.848;2022-09-29T16:47:28;95572.16;;;19.63;46.09